Caseyville, IL (62232)

14:08 CST le 26 novembre 2014 (GMT -0600)
Tim and Carolyns yard | Change Station
CLOSE
Current Station
Stations météorologiques personnelles
Location: COLLINSVILLE, IL
Altitude: 522 ft
Stations météo à proximité

Alt. 522 ft 38.66 °N, 89.99 °W | Updated 1 second ago

Pluie
Pluie
34.4 ° F
Paraît 34 ° F
N
1.8
Vent Variable Vent de ESE
Gusts 1.8 mph

Aujourd'hui
Haut(e) -- | Bas -- ° F
--% Risque de précip.
Hier
Haut(e) -- | Bas -- ° F
Precip. -- pouce
6:53 AM 4:40 PM
Lune montante, 22% visible
Pression 29.99 pouce
Visibilité 0.2 Miles terrestres
Nuages
Refroidissement éolien 34 ° F
Point de rosée 30 ° F
Humidité 85%
Précipitations 0.00 pouce
Profondeur de la couche neigeuse Non disponible.
UV Non disponible.
Pollen .40 sur 12
Qualité de l'air Non disponible.
Flu Activity Non disponible.
SPECI KCPS 262000Z 00000KT 1/4SM SN FG VV006 01/00 A2999 RMK AO2 P0001 T00060000

More Conditions Fewer Conditions

Pression 29.99 pouce
Visibilité 0.2 Miles terrestres
Nuages
Refroidissement éolien 34 ° F
Point de rosée 30 ° F
Humidité 85%
Précipitations 0.00 pouce
Profondeur de la couche neigeuse Non disponible.
UV Non disponible.
Pollen .40 sur 12
Qualité de l'air Non disponible.
Flu Activity Non disponible.
SPECI KCPS 262000Z 00000KT 1/4SM SN FG VV006 01/00 A2999 RMK AO2 P0001 T00060000

More Conditions Fewer Conditions

10-Day Weather Forecast

Almanac

Astronomie

Nov. 26, 2014 Lever Coucher
Temps réel
Crépuscule civil
Crépuscule nautique
Crépuscule astronomique
Lune
Durée de lumière visible
Longueur du jour
Tomorrow will be .
, % of the Moon is Illuminated

Extrêmes aujourd'hui

State Highs State Lows

Community

WunderPhotos

Upload Photos

1,773,846 Photos téléchargées !

WunderBlogs® & News

Nearby

Qualité de l'air

  Qualité de l'air Indice de la qualité de l'air Polluant
Not available.

Épaisseur de neige

Station Depth Altitude

Activité sismique

Ville Distance Mag. Time & Date
Minimum magnitude displayed is 2.5.

Températures des eaux côtières

Lieu Température

Stations météo à proximité